sensor_id;sensor_type;location;lat;lon;timestamp;temperature;humidity
66873;HTU21D;53781;51.090;5.884;2022-08-04T00:00:14;25.65;58.41
66873;HTU21D;53781;51.090;5.884;2022-08-04T00:00:30;25.66;58.45
66873;HTU21D;53781;51.090;5.884;2022-08-04T00:01:08;25.65;58.48
66873;HTU21D;53781;51.090;5.884;2022-08-04T00:01:32;25.63;58.51
66873;HTU21D;53781;51.090;5.884;2022-08-04T00:01:54;25.62;58.54
66873;HTU21D;53781;51.090;5.884;2022-08-04T00:03:15;25.63;58.47
66873;HTU21D;53781;51.090;5.884;2022-08-04T00:03:42;25.64;58.46
66873;HTU21D;53781;51.090;5.884;2022-08-04T00:04:09;25.63;58.41
66873;HTU21D;53781;51.090;5.884;2022-08-04T00:05:00;25.64;58.38
66873;HTU21D;53781;51.090;5.884;2022-08-04T00:05:29;25.63;58.39
66873;HTU21D;53781;51.090;5.884;2022-08-04T00:06:02;25.63;58.32
66873;HTU21D;53781;51.090;5.884;2022-08-04T00:06:44;25.63;58.30
66873;HTU21D;53781;51.090;5.884;2022-08-04T00:07:18;25.63;58.30
66873;HTU21D;53781;51.090;5.884;2022-08-04T00:08:55;25.62;58.31
66873;HTU21D;53781;51.090;5.884;2022-08-04T00:09:34;25.62;58.35
66873;HTU21D;53781;51.090;5.884;2022-08-04T00:09:59;25.60;58.27
66873;HTU21D;53781;51.090;5.884;2022-08-04T00:10:17;25.60;58.33
66873;HTU21D;53781;51.090;5.884;2022-08-04T00:10:32;25.62;58.33
66873;HTU21D;53781;51.090;5.884;2022-08-04T00:10:54;25.61;58.40
66873;HTU21D;53781;51.090;5.884;2022-08-04T00:11:13;25.61;58.34
66873;HTU21D;53781;51.090;5.884;2022-08-04T00:11:30;25.62;58.32
66873;HTU21D;53781;51.090;5.884;2022-08-04T00:11:48;25.61;58.39
66873;HTU21D;53781;51.090;5.884;2022-08-04T00:12:06;25.61;58.32
66873;HTU21D;53781;51.090;5.884;2022-08-04T00:12:25;25.61;58.37
66873;HTU21D;53781;51.090;5.884;2022-08-04T00:12:47;25.64;58.34
66873;HTU21D;53781;51.090;5.884;2022-08-04T00:13:03;25.60;58.34
66873;HTU21D;53781;51.090;5.884;2022-08-04T00:13:23;25.63;58.29
66873;HTU21D;53781;51.090;5.884;2022-08-04T00:13:42;25.63;58.33
66873;HTU21D;53781;51.090;5.884;2022-08-04T00:14:04;25.66;58.23
66873;HTU21D;53781;51.090;5.884;2022-08-04T00:14:20;25.67;58.27
66873;HTU21D;53781;51.090;5.884;2022-08-04T00:14:47;25.65;58.24
66873;HTU21D;53781;51.090;5.884;2022-08-04T00:15:04;25.65;58.22
66873;HTU21D;53781;51.090;5.884;2022-08-04T00:15:22;25.66;58.24
66873;HTU21D;53781;51.090;5.884;2022-08-04T00:15:37;25.64;58.26
66873;HTU21D;53781;51.090;5.884;2022-08-04T00:15:57;25.64;58.28
66873;HTU21D;53781;51.090;5.884;2022-08-04T00:16:13;25.64;58.23
66873;HTU21D;53781;51.090;5.884;2022-08-04T00:16:29;25.64;58.29
66873;HTU21D;53781;51.090;5.884;2022-08-04T00:16:46;25.64;58.28
66873;HTU21D;53781;51.090;5.884;2022-08-04T00:17:05;25.64;58.26
66873;HTU21D;53781;51.090;5.884;2022-08-04T00:17:34;25.63;58.29
66873;HTU21D;53781;51.090;5.884;2022-08-04T00:18:14;25.64;58.31
66873;HTU21D;53781;51.090;5.884;2022-08-04T00:18:39;25.63;58.28
66873;HTU21D;53781;51.090;5.884;2022-08-04T00:18:57;25.65;58.21
66873;HTU21D;53781;51.090;5.884;2022-08-04T00:19:31;25.61;58.22
66873;HTU21D;53781;51.090;5.884;2022-08-04T00:19:48;25.62;58.26
66873;HTU21D;53781;51.090;5.884;2022-08-04T00:20:08;25.64;58.29
66873;HTU21D;53781;51.090;5.884;2022-08-04T00:20:23;25.62;58.28
66873;HTU21D;53781;51.090;5.884;2022-08-04T00:20:43;25.61;58.27
66873;HTU21D;53781;51.090;5.884;2022-08-04T00:21:04;25.63;58.25
66873;HTU21D;53781;51.090;5.884;2022-08-04T00:21:23;25.62;58.32
66873;HTU21D;53781;51.090;5.884;2022-08-04T00:21:44;25.63;58.30
66873;HTU21D;53781;51.090;5.884;2022-08-04T00:22:06;25.59;58.30
66873;HTU21D;53781;51.090;5.884;2022-08-04T00:22:26;25.60;58.27
66873;HTU21D;53781;51.090;5.884;2022-08-04T00:22:44;25.60;58.29
66873;HTU21D;53781;51.090;5.884;2022-08-04T00:23:01;25.61;58.33
66873;HTU21D;53781;51.090;5.884;2022-08-04T00:23:16;25.61;58.26
66873;HTU21D;53781;51.090;5.884;2022-08-04T00:23:35;25.59;58.29
66873;HTU21D;53781;51.090;5.884;2022-08-04T00:23:53;25.60;58.32
66873;HTU21D;53781;51.090;5.884;2022-08-04T00:24:11;25.59;58.30
66873;HTU21D;53781;51.090;5.884;2022-08-04T00:24:32;25.58;58.25
66873;HTU21D;53781;51.090;5.884;2022-08-04T00:24:48;25.58;58.29
66873;HTU21D;53781;51.090;5.884;2022-08-04T00:25:04;25.58;58.27
66873;HTU21D;53781;51.090;5.884;2022-08-04T00:25:19;25.58;58.28
66873;HTU21D;53781;51.090;5.884;2022-08-04T00:25:38;25.57;58.29
66873;HTU21D;53781;51.090;5.884;2022-08-04T00:25:55;25.56;58.31
66873;HTU21D;53781;51.090;5.884;2022-08-04T00:26:11;25.56;58.26
66873;HTU21D;53781;51.090;5.884;2022-08-04T00:26:26;25.56;58.27
66873;HTU21D;53781;51.090;5.884;2022-08-04T00:26:42;25.54;58.27
66873;HTU21D;53781;51.090;5.884;2022-08-04T00:26:58;25.54;58.27
66873;HTU21D;53781;51.090;5.884;2022-08-04T00:27:14;25.53;58.27
66873;HTU21D;53781;51.090;5.884;2022-08-04T00:27:30;25.52;58.32
66873;HTU21D;53781;51.090;5.884;2022-08-04T00:27:46;25.50;58.31
66873;HTU21D;53781;51.090;5.884;2022-08-04T00:28:00;25.51;58.35
66873;HTU21D;53781;51.090;5.884;2022-08-04T00:28:16;25.51;58.36
66873;HTU21D;53781;51.090;5.884;2022-08-04T00:28:30;25.50;58.28
66873;HTU21D;53781;51.090;5.884;2022-08-04T00:28:47;25.48;58.35
66873;HTU21D;53781;51.090;5.884;2022-08-04T00:29:01;25.48;58.38
66873;HTU21D;53781;51.090;5.884;2022-08-04T00:29:16;25.46;58.34
66873;HTU21D;53781;51.090;5.884;2022-08-04T00:29:32;25.46;58.40
66873;HTU21D;53781;51.090;5.884;2022-08-04T00:29:47;25.45;58.45
66873;HTU21D;53781;51.090;5.884;2022-08-04T00:30:04;25.46;58.40
66873;HTU21D;53781;51.090;5.884;2022-08-04T00:30:20;25.46;58.45
66873;HTU21D;53781;51.090;5.884;2022-08-04T00:30:35;25.44;58.41
66873;HTU21D;53781;51.090;5.884;2022-08-04T00:30:50;25.44;58.47
66873;HTU21D;53781;51.090;5.884;2022-08-04T00:31:09;25.43;58.51
66873;HTU21D;53781;51.090;5.884;2022-08-04T00:31:26;25.43;58.54
66873;HTU21D;53781;51.090;5.884;2022-08-04T00:31:41;25.45;58.49
66873;HTU21D;53781;51.090;5.884;2022-08-04T00:31:57;25.42;58.49
66873;HTU21D;53781;51.090;5.884;2022-08-04T00:32:13;25.44;58.50
66873;HTU21D;53781;51.090;5.884;2022-08-04T00:32:27;25.42;58.45
66873;HTU21D;53781;51.090;5.884;2022-08-04T00:32:42;25.42;58.55
66873;HTU21D;53781;51.090;5.884;2022-08-04T00:32:57;25.42;58.55
66873;HTU21D;53781;51.090;5.884;2022-08-04T00:33:18;25.42;58.58
66873;HTU21D;53781;51.090;5.884;2022-08-04T00:33:36;25.42;58.52
66873;HTU21D;53781;51.090;5.884;2022-08-04T00:33:52;25.43;58.56
66873;HTU21D;53781;51.090;5.884;2022-08-04T00:34:11;25.40;58.48
66873;HTU21D;53781;51.090;5.884;2022-08-04T00:34:30;25.42;58.49
66873;HTU21D;53781;51.090;5.884;2022-08-04T00:34:45;25.42;58.51
66873;HTU21D;53781;51.090;5.884;2022-08-04T00:35:02;25.42;58.53
66873;HTU21D;53781;51.090;5.884;2022-08-04T00:35:17;25.40;58.58
66873;HTU21D;53781;51.090;5.884;2022-08-04T00:35:32;25.40;58.55
66873;HTU21D;53781;51.090;5.884;2022-08-04T00:35:49;25.38;58.54
66873;HTU21D;53781;51.090;5.884;2022-08-04T00:36:04;25.36;58.60
66873;HTU21D;53781;51.090;5.884;2022-08-04T00:36:20;25.36;58.61
66873;HTU21D;53781;51.090;5.884;2022-08-04T00:36:35;25.37;58.66
66873;HTU21D;53781;51.090;5.884;2022-08-04T00:36:52;25.37;58.67
66873;HTU21D;53781;51.090;5.884;2022-08-04T00:37:08;25.38;58.66
66873;HTU21D;53781;51.090;5.884;2022-08-04T00:37:24;25.36;58.64
66873;HTU21D;53781;51.090;5.884;2022-08-04T00:37:39;25.38;58.61
66873;HTU21D;53781;51.090;5.884;2022-08-04T00:37:58;25.35;58.64
66873;HTU21D;53781;51.090;5.884;2022-08-04T00:38:18;25.35;58.64
66873;HTU21D;53781;51.090;5.884;2022-08-04T00:38:33;25.36;58.60
66873;HTU21D;53781;51.090;5.884;2022-08-04T00:38:50;25.35;58.61
66873;HTU21D;53781;51.090;5.884;2022-08-04T00:39:12;25.33;58.61
66873;HTU21D;53781;51.090;5.884;2022-08-04T00:39:29;25.35;58.62
66873;HTU21D;53781;51.090;5.884;2022-08-04T00:39:46;25.35;58.61
66873;HTU21D;53781;51.090;5.884;2022-08-04T00:41:33;25.34;58.59
66873;HTU21D;53781;51.090;5.884;2022-08-04T00:42:12;25.33;58.60
66873;HTU21D;53781;51.090;5.884;2022-08-04T00:42:47;25.31;58.54
66873;HTU21D;53781;51.090;5.884;2022-08-04T00:43:33;25.32;58.51
66873;HTU21D;53781;51.090;5.884;2022-08-04T00:44:25;25.31;58.51
66873;HTU21D;53781;51.090;5.884;2022-08-04T00:45:57;25.30;58.63
66873;HTU21D;53781;51.090;5.884;2022-08-04T00:46:46;25.30;58.65
66873;HTU21D;53781;51.090;5.884;2022-08-04T00:47:38;25.27;58.64
66873;HTU21D;53781;51.090;5.884;2022-08-04T00:48:19;25.28;58.70
66873;HTU21D;53781;51.090;5.884;2022-08-04T00:50:26;25.25;58.81
66873;HTU21D;53781;51.090;5.884;2022-08-04T00:51:40;25.20;58.94
66873;HTU21D;53781;51.090;5.884;2022-08-04T00:53:30;25.18;58.96
66873;HTU21D;53781;51.090;5.884;2022-08-04T00:59:02;25.13;59.09
66873;HTU21D;53781;51.090;5.884;2022-08-04T01:00:03;25.09;59.09
66873;HTU21D;53781;51.090;5.884;2022-08-04T01:00:20;25.08;59.14
66873;HTU21D;53781;51.090;5.884;2022-08-04T01:01:06;25.08;59.16
66873;HTU21D;53781;51.090;5.884;2022-08-04T01:02:22;25.04;59.22
66873;HTU21D;53781;51.090;5.884;2022-08-04T01:03:00;25.02;59.20
66873;HTU21D;53781;51.090;5.884;2022-08-04T01:04:44;25.02;59.37
66873;HTU21D;53781;51.090;5.884;2022-08-04T01:06:17;24.97;59.51
66873;HTU21D;53781;51.090;5.884;2022-08-04T01:07:07;24.95;59.63
66873;HTU21D;53781;51.090;5.884;2022-08-04T01:09:40;24.92;59.83
66873;HTU21D;53781;51.090;5.884;2022-08-04T01:10:35;24.89;59.86
66873;HTU21D;53781;51.090;5.884;2022-08-04T01:15:06;24.79;60.26
66873;HTU21D;53781;51.090;5.884;2022-08-04T01:16:20;24.78;60.31
66873;HTU21D;53781;51.090;5.884;2022-08-04T01:16:26;24.77;60.41
66873;HTU21D;53781;51.090;5.884;2022-08-04T01:16:48;24.75;60.42
66873;HTU21D;53781;51.090;5.884;2022-08-04T01:17:24;24.76;60.47
66873;HTU21D;53781;51.090;5.884;2022-08-04T01:18:07;24.74;60.54
66873;HTU21D;53781;51.090;5.884;2022-08-04T01:18:45;24.74;60.60
66873;HTU21D;53781;51.090;5.884;2022-08-04T01:19:52;24.72;60.60
66873;HTU21D;53781;51.090;5.884;2022-08-04T01:20:10;24.72;60.61
66873;HTU21D;53781;51.090;5.884;2022-08-04T01:20:45;24.72;60.64
66873;HTU21D;53781;51.090;5.884;2022-08-04T01:22:17;24.68;60.68
66873;HTU21D;53781;51.090;5.884;2022-08-04T01:23:34;24.65;60.79
66873;HTU21D;53781;51.090;5.884;2022-08-04T01:27:03;24.63;60.94
66873;HTU21D;53781;51.090;5.884;2022-08-04T01:28:14;24.63;60.87
66873;HTU21D;53781;51.090;5.884;2022-08-04T01:29:03;24.64;60.95
66873;HTU21D;53781;51.090;5.884;2022-08-04T01:29:21;24.65;60.91
66873;HTU21D;53781;51.090;5.884;2022-08-04T01:29:49;24.63;60.89
66873;HTU21D;53781;51.090;5.884;2022-08-04T01:30:04;24.65;60.91
66873;HTU21D;53781;51.090;5.884;2022-08-04T01:30:19;24.64;60.86
66873;HTU21D;53781;51.090;5.884;2022-08-04T01:30:38;24.63;60.89
66873;HTU21D;53781;51.090;5.884;2022-08-04T01:30:57;24.63;61.00
66873;HTU21D;53781;51.090;5.884;2022-08-04T01:32:20;24.60;61.08
66873;HTU21D;53781;51.090;5.884;2022-08-04T01:32:43;24.63;61.10
66873;HTU21D;53781;51.090;5.884;2022-08-04T01:33:03;24.61;61.09
66873;HTU21D;53781;51.090;5.884;2022-08-04T01:33:21;24.61;61.12
66873;HTU21D;53781;51.090;5.884;2022-08-04T01:33:38;24.59;61.07
66873;HTU21D;53781;51.090;5.884;2022-08-04T01:33:59;24.61;61.06
66873;HTU21D;53781;51.090;5.884;2022-08-04T01:34:19;24.61;61.10
66873;HTU21D;53781;51.090;5.884;2022-08-04T01:34:42;24.59;61.12
66873;HTU21D;53781;51.090;5.884;2022-08-04T01:35:15;24.59;61.15
66873;HTU21D;53781;51.090;5.884;2022-08-04T01:35:55;24.58;61.18
66873;HTU21D;53781;51.090;5.884;2022-08-04T01:36:11;24.59;61.15
66873;HTU21D;53781;51.090;5.884;2022-08-04T01:36:32;24.57;61.18
66873;HTU21D;53781;51.090;5.884;2022-08-04T01:37:11;24.55;61.25
66873;HTU21D;53781;51.090;5.884;2022-08-04T01:37:36;24.55;61.25
66873;HTU21D;53781;51.090;5.884;2022-08-04T01:38:28;24.54;61.36
66873;HTU21D;53781;51.090;5.884;2022-08-04T01:38:43;24.56;61.29
66873;HTU21D;53781;51.090;5.884;2022-08-04T01:39:00;24.54;61.34
66873;HTU21D;53781;51.090;5.884;2022-08-04T01:39:42;24.53;61.42
66873;HTU21D;53781;51.090;5.884;2022-08-04T01:40:04;24.53;61.33
66873;HTU21D;53781;51.090;5.884;2022-08-04T01:40:22;24.53;61.39
66873;HTU21D;53781;51.090;5.884;2022-08-04T01:40:41;24.53;61.41
66873;HTU21D;53781;51.090;5.884;2022-08-04T01:40:59;24.54;61.44
66873;HTU21D;53781;51.090;5.884;2022-08-04T01:41:18;24.51;61.47
66873;HTU21D;53781;51.090;5.884;2022-08-04T01:41:33;24.51;61.37
66873;HTU21D;53781;51.090;5.884;2022-08-04T01:41:51;24.53;61.40
66873;HTU21D;53781;51.090;5.884;2022-08-04T01:42:09;24.53;61.40
66873;HTU21D;53781;51.090;5.884;2022-08-04T01:42:25;24.50;61.44
66873;HTU21D;53781;51.090;5.884;2022-08-04T01:42:43;24.50;61.35
66873;HTU21D;53781;51.090;5.884;2022-08-04T01:43:00;24.50;61.40
66873;HTU21D;53781;51.090;5.884;2022-08-04T01:43:19;24.49;61.44
66873;HTU21D;53781;51.090;5.884;2022-08-04T01:43:40;24.49;61.41
66873;HTU21D;53781;51.090;5.884;2022-08-04T01:43:57;24.49;61.44
66873;HTU21D;53781;51.090;5.884;2022-08-04T01:44:15;24.50;61.42
66873;HTU21D;53781;51.090;5.884;2022-08-04T01:44:35;24.48;61.40
66873;HTU21D;53781;51.090;5.884;2022-08-04T01:44:50;24.49;61.43
66873;HTU21D;53781;51.090;5.884;2022-08-04T01:45:08;24.48;61.49
66873;HTU21D;53781;51.090;5.884;2022-08-04T01:45:24;24.48;61.47
66873;HTU21D;53781;51.090;5.884;2022-08-04T01:45:40;24.48;61.44
66873;HTU21D;53781;51.090;5.884;2022-08-04T01:46:00;24.50;61.47
66873;HTU21D;53781;51.090;5.884;2022-08-04T01:46:16;24.49;61.50
66873;HTU21D;53781;51.090;5.884;2022-08-04T01:46:32;24.46;61.50
66873;HTU21D;53781;51.090;5.884;2022-08-04T01:46:49;24.46;61.50
66873;HTU21D;53781;51.090;5.884;2022-08-04T01:47:07;24.47;61.48
66873;HTU21D;53781;51.090;5.884;2022-08-04T01:47:28;24.47;61.53
66873;HTU21D;53781;51.090;5.884;2022-08-04T01:47:51;24.47;61.57
66873;HTU21D;53781;51.090;5.884;2022-08-04T01:48:07;24.47;61.53
66873;HTU21D;53781;51.090;5.884;2022-08-04T01:48:26;24.45;61.60
66873;HTU21D;53781;51.090;5.884;2022-08-04T01:48:46;24.46;61.59
66873;HTU21D;53781;51.090;5.884;2022-08-04T01:49:01;24.46;61.58
66873;HTU21D;53781;51.090;5.884;2022-08-04T01:49:20;24.47;61.50
66873;HTU21D;53781;51.090;5.884;2022-08-04T01:49:37;24.45;61.59
66873;HTU21D;53781;51.090;5.884;2022-08-04T01:49:57;24.46;61.63
66873;HTU21D;53781;51.090;5.884;2022-08-04T01:50:14;24.45;61.60
66873;HTU21D;53781;51.090;5.884;2022-08-04T01:50:34;24.44;61.67
66873;HTU21D;53781;51.090;5.884;2022-08-04T01:50:51;24.44;61.60
66873;HTU21D;53781;51.090;5.884;2022-08-04T01:51:08;24.45;61.60
66873;HTU21D;53781;51.090;5.884;2022-08-04T01:51:23;24.44;61.64
66873;HTU21D;53781;51.090;5.884;2022-08-04T01:51:39;24.44;61.64
66873;HTU21D;53781;51.090;5.884;2022-08-04T01:51:55;24.43;61.60
66873;HTU21D;53781;51.090;5.884;2022-08-04T01:52:15;24.43;61.60
66873;HTU21D;53781;51.090;5.884;2022-08-04T01:52:31;24.43;61.60
66873;HTU21D;53781;51.090;5.884;2022-08-04T01:52:47;24.44;61.60
66873;HTU21D;53781;51.090;5.884;2022-08-04T01:53:03;24.42;61.59
66873;HTU21D;53781;51.090;5.884;2022-08-04T01:53:19;24.44;61.54
66873;HTU21D;53781;51.090;5.884;2022-08-04T01:53:37;24.46;61.56
66873;HTU21D;53781;51.090;5.884;2022-08-04T01:53:53;24.42;61.61
66873;HTU21D;53781;51.090;5.884;2022-08-04T01:54:08;24.43;61.59
66873;HTU21D;53781;51.090;5.884;2022-08-04T01:54:25;24.43;61.60
66873;HTU21D;53781;51.090;5.884;2022-08-04T01:54:42;24.43;61.57
66873;HTU21D;53781;51.090;5.884;2022-08-04T01:54:57;24.42;61.57
66873;HTU21D;53781;51.090;5.884;2022-08-04T01:55:14;24.44;61.55
66873;HTU21D;53781;51.090;5.884;2022-08-04T01:55:33;24.42;61.55
66873;HTU21D;53781;51.090;5.884;2022-08-04T01:55:51;24.44;61.55
66873;HTU21D;53781;51.090;5.884;2022-08-04T01:56:08;24.44;61.54
66873;HTU21D;53781;51.090;5.884;2022-08-04T01:56:27;24.43;61.56
66873;HTU21D;53781;51.090;5.884;2022-08-04T01:56:44;24.43;61.57
66873;HTU21D;53781;51.090;5.884;2022-08-04T01:57:04;24.42;61.55
66873;HTU21D;53781;51.090;5.884;2022-08-04T01:57:22;24.42;61.58
66873;HTU21D;53781;51.090;5.884;2022-08-04T01:57:42;24.42;61.57
66873;HTU21D;53781;51.090;5.884;2022-08-04T01:57:59;24.44;61.56
66873;HTU21D;53781;51.090;5.884;2022-08-04T01:58:18;24.44;61.54
66873;HTU21D;53781;51.090;5.884;2022-08-04T01:58:35;24.43;61.51
66873;HTU21D;53781;51.090;5.884;2022-08-04T01:58:56;24.41;61.51
66873;HTU21D;53781;51.090;5.884;2022-08-04T01:59:17;24.41;61.48
66873;HTU21D;53781;51.090;5.884;2022-08-04T01:59:33;24.42;61.54
66873;HTU21D;53781;51.090;5.884;2022-08-04T01:59:51;24.43;61.50
66873;HTU21D;53781;51.090;5.884;2022-08-04T02:00:06;24.40;61.49
66873;HTU21D;53781;51.090;5.884;2022-08-04T02:00:25;24.40;61.50
66873;HTU21D;53781;51.090;5.884;2022-08-04T02:00:59;24.41;61.52
66873;HTU21D;53781;51.090;5.884;2022-08-04T02:01:15;24.40;61.50
66873;HTU21D;53781;51.090;5.884;2022-08-04T02:01:35;24.39;61.58
66873;HTU21D;53781;51.090;5.884;2022-08-04T02:01:50;24.40;61.56
66873;HTU21D;53781;51.090;5.884;2022-08-04T02:02:05;24.41;61.57
66873;HTU21D;53781;51.090;5.884;2022-08-04T02:02:22;24.41;61.54
66873;HTU21D;53781;51.090;5.884;2022-08-04T02:02:40;24.40;61.57
66873;HTU21D;53781;51.090;5.884;2022-08-04T02:02:56;24.40;61.57
66873;HTU21D;53781;51.090;5.884;2022-08-04T02:03:11;24.39;61.58
66873;HTU21D;53781;51.090;5.884;2022-08-04T02:03:28;24.40;61.57
66873;HTU21D;53781;51.090;5.884;2022-08-04T02:03:44;24.39;61.60
66873;HTU21D;53781;51.090;5.884;2022-08-04T02:03:59;24.38;61.60
66873;HTU21D;53781;51.090;5.884;2022-08-04T02:04:15;24.39;61.59
66873;HTU21D;53781;51.090;5.884;2022-08-04T02:04:30;24.39;61.60
66873;HTU21D;53781;51.090;5.884;2022-08-04T02:04:45;24.38;61.58
66873;HTU21D;53781;51.090;5.884;2022-08-04T02:05:00;24.38;61.58
66873;HTU21D;53781;51.090;5.884;2022-08-04T02:05:23;24.39;61.57
66873;HTU21D;53781;51.090;5.884;2022-08-04T02:05:42;24.36;61.58
66873;HTU21D;53781;51.090;5.884;2022-08-04T02:06:30;24.38;61.59
66873;HTU21D;53781;51.090;5.884;2022-08-04T02:06:51;24.38;61.56
66873;HTU21D;53781;51.090;5.884;2022-08-04T02:07:49;24.36;61.57
66873;HTU21D;53781;51.090;5.884;2022-08-04T02:10:26;24.34;61.76
66873;HTU21D;53781;51.090;5.884;2022-08-04T02:11:14;24.33;61.76
66873;HTU21D;53781;51.090;5.884;2022-08-04T02:11:30;24.32;61.81
66873;HTU21D;53781;51.090;5.884;2022-08-04T02:13:28;24.28;61.86
66873;HTU21D;53781;51.090;5.884;2022-08-04T02:14:43;24.28;61.89
66873;HTU21D;53781;51.090;5.884;2022-08-04T02:15:26;24.28;61.93
66873;HTU21D;53781;51.090;5.884;2022-08-04T02:16:00;24.26;61.92
66873;HTU21D;53781;51.090;5.884;2022-08-04T02:16:43;24.25;61.95
66873;HTU21D;53781;51.090;5.884;2022-08-04T02:16:58;24.24;61.92
66873;HTU21D;53781;51.090;5.884;2022-08-04T02:17:34;24.25;61.97
66873;HTU21D;53781;51.090;5.884;2022-08-04T02:19:16;24.17;62.09
66873;HTU21D;53781;51.090;5.884;2022-08-04T02:19:44;24.16;62.07
66873;HTU21D;53781;51.090;5.884;2022-08-04T02:20:32;24.14;62.13
66873;HTU21D;53781;51.090;5.884;2022-08-04T02:20:57;24.14;62.18
66873;HTU21D;53781;51.090;5.884;2022-08-04T02:21:16;24.14;62.15
66873;HTU21D;53781;51.090;5.884;2022-08-04T02:21:33;24.14;62.20
66873;HTU21D;53781;51.090;5.884;2022-08-04T02:21:54;24.13;62.21
66873;HTU21D;53781;51.090;5.884;2022-08-04T02:22:16;24.13;62.26
66873;HTU21D;53781;51.090;5.884;2022-08-04T02:22:52;24.12;62.24
66873;HTU21D;53781;51.090;5.884;2022-08-04T02:23:18;24.12;62.27
66873;HTU21D;53781;51.090;5.884;2022-08-04T02:23:38;24.12;62.31
66873;HTU21D;53781;51.090;5.884;2022-08-04T02:24:01;24.10;62.28
66873;HTU21D;53781;51.090;5.884;2022-08-04T02:24:24;24.11;62.32
66873;HTU21D;53781;51.090;5.884;2022-08-04T02:24:56;24.10;62.36
66873;HTU21D;53781;51.090;5.884;2022-08-04T02:25:21;24.09;62.34
66873;HTU21D;53781;51.090;5.884;2022-08-04T02:25:46;24.09;62.41
66873;HTU21D;53781;51.090;5.884;2022-08-04T02:26:12;24.09;62.40
66873;HTU21D;53781;51.090;5.884;2022-08-04T02:26:28;24.10;62.41
66873;HTU21D;53781;51.090;5.884;2022-08-04T02:26:49;24.09;62.41
66873;HTU21D;53781;51.090;5.884;2022-08-04T02:27:07;24.10;62.44
66873;HTU21D;53781;51.090;5.884;2022-08-04T02:27:29;24.09;62.39
66873;HTU21D;53781;51.090;5.884;2022-08-04T02:28:12;24.08;62.45
66873;HTU21D;53781;51.090;5.884;2022-08-04T02:28:32;24.10;62.35
66873;HTU21D;53781;51.090;5.884;2022-08-04T02:29:44;24.09;62.30
66873;HTU21D;53781;51.090;5.884;2022-08-04T02:30:04;24.06;62.31
66873;HTU21D;53781;51.090;5.884;2022-08-04T02:30:20;24.08;62.28
66873;HTU21D;53781;51.090;5.884;2022-08-04T02:30:49;24.08;62.36
66873;HTU21D;53781;51.090;5.884;2022-08-04T02:32:12;24.05;62.29
66873;HTU21D;53781;51.090;5.884;2022-08-04T02:32:32;24.04;62.30
66873;HTU21D;53781;51.090;5.884;2022-08-04T02:33:00;24.05;62.36
66873;HTU21D;53781;51.090;5.884;2022-08-04T02:33:20;24.03;62.32
66873;HTU21D;53781;51.090;5.884;2022-08-04T02:33:45;24.02;62.33
66873;HTU21D;53781;51.090;5.884;2022-08-04T02:34:27;24.03;62.32
66873;HTU21D;53781;51.090;5.884;2022-08-04T02:35:45;24.02;62.32
66873;HTU21D;53781;51.090;5.884;2022-08-04T02:36:09;24.00;62.28
66873;HTU21D;53781;51.090;5.884;2022-08-04T02:36:30;24.01;62.35
66873;HTU21D;53781;51.090;5.884;2022-08-04T02:36:50;24.01;62.31
66873;HTU21D;53781;51.090;5.884;2022-08-04T02:37:08;24.01;62.32
66873;HTU21D;53781;51.090;5.884;2022-08-04T02:37:25;23.98;62.34
66873;HTU21D;53781;51.090;5.884;2022-08-04T02:37:47;23.99;62.35
66873;HTU21D;53781;51.090;5.884;2022-08-04T02:38:23;23.98;62.37
66873;HTU21D;53781;51.090;5.884;2022-08-04T02:39:05;23.98;62.41
66873;HTU21D;53781;51.090;5.884;2022-08-04T02:39:22;23.97;62.40
66873;HTU21D;53781;51.090;5.884;2022-08-04T02:39:42;23.97;62.47
66873;HTU21D;53781;51.090;5.884;2022-08-04T02:40:01;23.96;62.48
66873;HTU21D;53781;51.090;5.884;2022-08-04T02:40:19;23.96;62.47
66873;HTU21D;53781;51.090;5.884;2022-08-04T02:40:35;23.97;62.47
66873;HTU21D;53781;51.090;5.884;2022-08-04T02:40:53;23.97;62.46
66873;HTU21D;53781;51.090;5.884;2022-08-04T02:41:10;23.96;62.47
66873;HTU21D;53781;51.090;5.884;2022-08-04T02:41:27;23.95;62.50
66873;HTU21D;53781;51.090;5.884;2022-08-04T02:41:42;23.94;62.57
66873;HTU21D;53781;51.090;5.884;2022-08-04T02:41:58;23.92;62.50
66873;HTU21D;53781;51.090;5.884;2022-08-04T02:42:15;23.92;62.46
66873;HTU21D;53781;51.090;5.884;2022-08-04T02:42:33;23.92;62.50
66873;HTU21D;53781;51.090;5.884;2022-08-04T02:42:49;23.92;62.50
66873;HTU21D;53781;51.090;5.884;2022-08-04T02:43:05;23.91;62.51
66873;HTU21D;53781;51.090;5.884;2022-08-04T02:43:24;23.91;62.51
66873;HTU21D;53781;51.090;5.884;2022-08-04T02:43:41;23.90;62.53
66873;HTU21D;53781;51.090;5.884;2022-08-04T02:44:00;23.91;62.53
66873;HTU21D;53781;51.090;5.884;2022-08-04T02:44:22;23.91;62.52
66873;HTU21D;53781;51.090;5.884;2022-08-04T02:44:42;23.89;62.47
66873;HTU21D;53781;51.090;5.884;2022-08-04T02:44:59;23.88;62.55
66873;HTU21D;53781;51.090;5.884;2022-08-04T02:45:17;23.89;62.49
66873;HTU21D;53781;51.090;5.884;2022-08-04T02:45:35;23.89;62.54
66873;HTU21D;53781;51.090;5.884;2022-08-04T02:45:55;23.88;62.47
66873;HTU21D;53781;51.090;5.884;2022-08-04T02:46:11;23.89;62.50
66873;HTU21D;53781;51.090;5.884;2022-08-04T02:46:27;23.89;62.48
66873;HTU21D;53781;51.090;5.884;2022-08-04T02:46:42;23.89;62.47
66873;HTU21D;53781;51.090;5.884;2022-08-04T02:46:59;23.90;62.47
66873;HTU21D;53781;51.090;5.884;2022-08-04T02:47:20;23.89;62.44
66873;HTU21D;53781;51.090;5.884;2022-08-04T02:47:34;23.89;62.49
66873;HTU21D;53781;51.090;5.884;2022-08-04T02:47:52;23.89;62.50
66873;HTU21D;53781;51.090;5.884;2022-08-04T02:48:09;23.90;62.44
66873;HTU21D;53781;51.090;5.884;2022-08-04T02:48:26;23.89;62.50
66873;HTU21D;53781;51.090;5.884;2022-08-04T02:48:45;23.89;62.50
66873;HTU21D;53781;51.090;5.884;2022-08-04T02:49:05;23.91;62.45
66873;HTU21D;53781;51.090;5.884;2022-08-04T02:49:21;23.91;62.45
66873;HTU21D;53781;51.090;5.884;2022-08-04T02:49:36;23.89;62.41
66873;HTU21D;53781;51.090;5.884;2022-08-04T02:49:52;23.89;62.41
66873;HTU21D;53781;51.090;5.884;2022-08-04T02:50:09;23.90;62.35
66873;HTU21D;53781;51.090;5.884;2022-08-04T02:50:26;23.89;62.35
66873;HTU21D;53781;51.090;5.884;2022-08-04T02:50:44;23.89;62.34
66873;HTU21D;53781;51.090;5.884;2022-08-04T02:51:02;23.88;62.33
66873;HTU21D;53781;51.090;5.884;2022-08-04T02:51:23;23.89;62.37
66873;HTU21D;53781;51.090;5.884;2022-08-04T02:51:46;23.90;62.33
66873;HTU21D;53781;51.090;5.884;2022-08-04T02:52:06;23.89;62.35
66873;HTU21D;53781;51.090;5.884;2022-08-04T02:52:24;23.89;62.32
66873;HTU21D;53781;51.090;5.884;2022-08-04T02:52:42;23.90;62.33
66873;HTU21D;53781;51.090;5.884;2022-08-04T02:53:00;23.89;62.36
66873;HTU21D;53781;51.090;5.884;2022-08-04T02:53:21;23.91;62.27
66873;HTU21D;53781;51.090;5.884;2022-08-04T02:53:36;23.90;62.21
66873;HTU21D;53781;51.090;5.884;2022-08-04T02:53:54;23.89;62.25
66873;HTU21D;53781;51.090;5.884;2022-08-04T02:54:09;23.89;62.24
66873;HTU21D;53781;51.090;5.884;2022-08-04T02:54:30;23.89;62.21